Den Haag, Netherlands

1:55 PM CEST on September 05, 2015 (GMT +0200)
| | Change Station
CLOSE
Current Station
Personal Weather Station
Location: ,
Elevation: -9999 ft
Nearby Weather Stations

Elev -9999 ft 0.00 °N, 0.00 °E | Updated

Mostly Cloudy
Mostly Cloudy
61 °F
Feels Like 61 °F
N
15
Wind Variable Wind from NNW
Gusts 20 mph

Today
High -- | Low -- °F
--% Chance of Precip.
Yesterday
High -- | Low -- °F
Precip. -- in
7:00 AM 8:21 PM
Waning Gibbous, 49% visible
Pressure 30.06 in
Visibility 5.0 miles
Clouds Few 500 ft
Scattered Clouds 1500 ft
Mostly Cloudy 1900 ft
Dew Point 50 °F
Humidity 69%
Rainfall -9999.00 in
Snow Depth Not available.
UV 3 out of 12
Pollen Not available.
Air Quality Not available.
Flu Activity Not available.
SPECI EHWO 051149Z AUTO 27008KT 8000 SHRA FEW005 SCT015 BKN019 14/12 Q1018 WHT
Pressure 30.06 in
Visibility 5.0 miles
Clouds Few 500 ft
Scattered Clouds 1500 ft
Mostly Cloudy 1900 ft
Dew Point 50 °F
Humidity 69%
Rainfall -9999.00 in
Snow Depth Not available.
UV 3 out of 12
Pollen Not available.
Air Quality Not available.
Flu Activity Not available.
SPECI EHWO 051149Z AUTO 27008KT 8000 SHRA FEW005 SCT015 BKN019 14/12 Q1018 WHT

10-Day Weather Forecast

×

Almanac

Astronomy

Sep. 05, 2015 Rise Set
Actual Time
Civil Twilight
Nautical Twilight
Astronomical Twilight
Moon
Length of Visible Light
Length of Day
Tomorrow will be .
, % of the Moon is Illuminated

Today's Extremes

Country Highs Country Lows

Community

WunderPhotos

Upload Photos

1,852,449 photos uploaded!

WunderBlogs® & News

Nearby

Air Quality

  Air Quality AQ Index Pollutant
Not available.

Snow Depth

Station Depth Elevation

Earthquake Activity

City Distance Mag. Time & Date
Minimum magnitude displayed is 2.5.

Coastal Water Temperatures

Place Temperature

Stations

Nearby Weather Stations

Station Location Temp. Windchill Dew Point Humidity Wind Precip. Elev Updated Type